createdAt,value
2023-02-01T00:01:12.336Z,10.27
2023-02-01T00:03:39.889Z,13.50
2023-02-01T00:06:07.439Z,12.77
2023-02-01T00:08:36.135Z,10.60
2023-02-01T00:11:06.639Z,13.60
2023-02-01T00:13:36.344Z,10.27
2023-02-01T00:16:09.338Z,12.20
2023-02-01T00:18:37.365Z,16.30
2023-02-01T00:21:05.658Z,15.07
2023-02-01T00:23:35.327Z,17.73
2023-02-01T00:26:04.874Z,12.18
2023-02-01T00:28:32.737Z,11.48
2023-02-01T00:31:05.471Z,9.43
2023-02-01T00:33:33.944Z,8.60
2023-02-01T00:36:07.931Z,11.10
2023-02-01T00:38:38.795Z,13.02
2023-02-01T00:41:19.204Z,12.15
2023-02-01T00:43:47.784Z,12.52
2023-02-01T00:46:17.025Z,13.05
2023-02-01T00:48:45.567Z,11.05
2023-02-01T00:51:16.101Z,12.93
2023-02-01T00:53:43.735Z,12.68
2023-02-01T00:56:11.592Z,9.82
2023-02-01T00:58:39.464Z,17.52
2023-02-01T01:01:26.424Z,9.98
2023-02-01T01:03:58.887Z,13.93
2023-02-01T01:06:34.546Z,17.15
2023-02-01T01:09:06.818Z,9.68
2023-02-01T01:11:37.622Z,12.82
2023-02-01T01:14:08.546Z,14.05
2023-02-01T01:16:37.532Z,10.50
2023-02-01T01:19:05.355Z,13.35
2023-02-01T01:21:32.858Z,13.70
2023-02-01T01:24:00.486Z,10.95
2023-02-01T01:26:30.072Z,7.65
2023-02-01T01:28:59.862Z,14.18
2023-02-01T01:31:28.696Z,14.77
2023-02-01T01:33:58.647Z,14.95
2023-02-01T01:36:27.743Z,11.77
2023-02-01T01:38:55.908Z,13.15
2023-02-01T01:41:30.175Z,15.77
2023-02-01T01:44:03.889Z,19.05
2023-02-01T01:46:35.590Z,8.75
2023-02-01T01:49:21.005Z,12.35
2023-02-01T01:52:03.070Z,19.77
2023-02-01T01:54:38.845Z,12.48
2023-02-01T01:57:12.850Z,8.40
2023-02-01T01:59:42.887Z,22.10
2023-02-01T02:02:11.381Z,11.32
2023-02-01T02:04:39.493Z,10.02
2023-02-01T02:07:15.035Z,11.88
2023-02-01T02:09:54.566Z,12.68
2023-02-01T02:12:28.064Z,13.93
2023-02-01T02:14:57.057Z,16.63
2023-02-01T02:17:30.437Z,8.32
2023-02-01T02:20:06.125Z,12.82
2023-02-01T02:22:58.889Z,10.60
2023-02-01T02:25:53.450Z,12.20
2023-02-01T02:28:57.853Z,11.35
2023-02-01T02:31:52.540Z,19.08
2023-02-01T02:34:26.950Z,13.07
2023-02-01T02:36:57.555Z,8.32
2023-02-01T02:39:55.763Z,11.90
2023-02-01T02:42:54.866Z,12.15
2023-02-01T02:46:00.413Z,12.63
2023-02-01T02:48:52.800Z,13.88
2023-02-01T02:51:47.778Z,14.07
2023-02-01T02:54:39.711Z,14.77
2023-02-01T02:57:29.355Z,9.32
2023-02-01T03:00:21.242Z,13.95
2023-02-01T03:03:08.959Z,16.95
2023-02-01T03:05:40.885Z,10.90
2023-02-01T03:08:17.263Z,14.35
2023-02-01T03:11:08.429Z,11.80
2023-02-01T03:13:53.205Z,15.00
2023-02-01T03:16:34.728Z,12.82
2023-02-01T03:19:08.472Z,9.43
2023-02-01T03:24:41.289Z,14.35
2023-02-01T03:27:36.041Z,16.05
2023-02-01T03:30:12.607Z,13.75
2023-02-01T03:33:02.151Z,16.10
2023-02-01T03:36:27.582Z,11.60
2023-02-01T03:39:16.186Z,14.68
2023-02-01T03:41:56.669Z,14.52
2023-02-01T03:44:46.982Z,13.82
2023-02-01T03:47:22.432Z,11.00
2023-02-01T03:50:02.172Z,9.15
2023-02-01T03:52:38.993Z,7.85
2023-02-01T03:55:08.156Z,12.38
2023-02-01T03:57:41.633Z,15.48
2023-02-01T04:00:25.162Z,13.32
2023-02-01T04:02:54.127Z,19.30
2023-02-01T04:05:22.515Z,11.18
2023-02-01T04:08:01.217Z,12.45
2023-02-01T04:10:28.970Z,13.57
2023-02-01T04:12:56.425Z,16.20
2023-02-01T04:15:24.113Z,10.55
2023-02-01T04:17:51.490Z,22.52
2023-02-01T04:20:19.052Z,16.90
2023-02-01T04:22:46.497Z,12.02
2023-02-01T04:25:14.094Z,10.73
2023-02-01T04:27:41.472Z,10.15
2023-02-01T04:30:12.507Z,15.25
2023-02-01T04:32:40.574Z,21.25
2023-02-01T04:35:08.763Z,10.65
2023-02-01T04:37:36.521Z,10.45
2023-02-01T04:40:04.843Z,14.02
2023-02-01T04:42:32.409Z,11.90
2023-02-01T04:44:59.924Z,10.80
2023-02-01T04:47:27.584Z,13.63
2023-02-01T04:49:55.094Z,9.23
2023-02-01T04:52:22.698Z,15.93
2023-02-01T04:54:50.195Z,11.73
2023-02-01T04:57:17.711Z,12.98
2023-02-01T04:59:45.206Z,12.27
2023-02-01T05:02:12.664Z,12.73
2023-02-01T05:04:40.247Z,11.02
2023-02-01T05:07:07.875Z,13.60
2023-02-01T05:09:35.274Z,17.73
2023-02-01T05:12:21.584Z,16.35
2023-02-01T05:14:49.136Z,20.10
2023-02-01T05:17:17.113Z,18.40
2023-02-01T05:19:44.586Z,16.02
2023-02-01T05:22:12.105Z,15.70
2023-02-01T05:24:39.735Z,16.45
2023-02-01T05:27:07.223Z,18.17
2023-02-01T05:29:34.825Z,14.88
2023-02-01T05:32:19.380Z,21.08
2023-02-01T05:34:48.437Z,15.32
2023-02-01T05:37:15.961Z,20.02
2023-02-01T05:39:43.716Z,20.55
2023-02-01T05:42:11.725Z,15.18
2023-02-01T05:44:39.280Z,14.80
2023-02-01T05:47:07.075Z,10.10
2023-02-01T05:49:34.600Z,15.00
2023-02-01T05:52:02.350Z,15.55
2023-02-01T05:54:30.075Z,16.88
2023-02-01T05:56:57.576Z,27.52
2023-02-01T05:59:25.088Z,19.10
2023-02-01T06:01:52.547Z,17.05
2023-02-01T06:04:20.075Z,21.33
2023-02-01T06:06:47.503Z,10.73
2023-02-01T06:09:15.014Z,26.45
2023-02-01T06:11:42.535Z,20.60
2023-02-01T06:14:10.073Z,15.57
2023-02-01T06:16:37.513Z,19.15
2023-02-01T06:19:05.413Z,13.57
2023-02-01T06:21:34.512Z,13.63
2023-02-01T06:24:02.083Z,13.50
2023-02-01T06:26:30.273Z,12.50
2023-02-01T06:28:57.825Z,18.35
2023-02-01T06:31:26.882Z,13.63
2023-02-01T06:33:54.739Z,13.73
2023-02-01T06:36:22.428Z,12.90
2023-02-01T06:38:50.003Z,14.95
2023-02-01T06:41:17.731Z,14.82
2023-02-01T06:43:46.655Z,10.57
2023-02-01T06:46:15.017Z,14.43
2023-02-01T06:48:43.916Z,16.77
2023-02-01T06:51:25.269Z,14.05
2023-02-01T06:53:53.195Z,12.48
2023-02-01T06:56:21.478Z,16.00
2023-02-01T06:58:49.902Z,15.27
2023-02-01T07:01:17.929Z,10.85
2023-02-01T07:03:48.997Z,17.50
2023-02-01T07:06:16.492Z,16.65
2023-02-01T07:08:44.678Z,16.42
2023-02-01T07:11:14.264Z,13.43
2023-02-01T07:13:42.260Z,17.42
2023-02-01T07:16:16.232Z,15.75
2023-02-01T07:18:44.133Z,12.02
2023-02-01T07:21:11.629Z,11.65
2023-02-01T07:23:39.306Z,15.88
2023-02-01T07:26:09.045Z,14.40
2023-02-01T07:28:38.767Z,14.23
2023-02-01T07:31:08.505Z,16.42
2023-02-01T07:33:36.792Z,10.60
2023-02-01T07:36:07.101Z,14.93
2023-02-01T07:38:35.140Z,16.23
2023-02-01T07:41:04.088Z,16.90
2023-02-01T07:43:32.500Z,16.33
2023-02-01T07:46:00.378Z,16.25
2023-02-01T07:48:29.287Z,15.60
2023-02-01T07:51:04.906Z,16.20
2023-02-01T07:53:34.296Z,21.92
2023-02-01T07:56:02.696Z,17.23
2023-02-01T07:58:30.490Z,15.48
2023-02-01T08:01:16.413Z,10.25
2023-02-01T08:03:44.052Z,14.52
2023-02-01T08:06:11.455Z,14.85
2023-02-01T08:08:39.236Z,19.67
2023-02-01T08:11:07.872Z,18.83
2023-02-01T08:13:36.620Z,16.25
2023-02-01T08:16:07.310Z,17.77
2023-02-01T08:18:36.022Z,17.63
2023-02-01T08:21:24.226Z,14.30
2023-02-01T08:23:52.670Z,19.73
2023-02-01T08:26:27.264Z,17.02
2023-02-01T08:29:00.905Z,15.43
2023-02-01T08:34:00.645Z,22.85
2023-02-01T08:36:30.117Z,15.98
2023-02-01T08:38:58.404Z,17.63
2023-02-01T08:41:28.773Z,11.10
2023-02-01T08:43:57.853Z,14.70
2023-02-01T08:46:25.709Z,28.30
2023-02-01T08:48:53.650Z,19.27
2023-02-01T08:51:23.808Z,17.98
2023-02-01T08:53:51.944Z,14.70
2023-02-01T08:56:20.858Z,15.93
2023-02-01T08:58:48.406Z,13.80
2023-02-01T09:01:18.193Z,16.67
2023-02-01T09:03:46.751Z,17.77
2023-02-01T09:06:16.124Z,18.90
2023-02-01T09:08:44.909Z,17.30
2023-02-01T09:11:15.984Z,22.23
2023-02-01T09:13:43.920Z,16.13
2023-02-01T09:16:11.854Z,18.85
2023-02-01T09:18:50.921Z,10.82
2023-02-01T09:21:24.064Z,16.17
2023-02-01T09:23:52.799Z,17.80
2023-02-01T09:26:26.547Z,13.77
2023-02-01T09:28:58.904Z,18.60
2023-02-01T09:31:26.463Z,12.52
2023-02-01T09:33:54.129Z,16.95
2023-02-01T09:36:21.652Z,21.17
2023-02-01T09:38:53.195Z,15.48
2023-02-01T09:41:42.800Z,14.15
2023-02-01T09:44:35.656Z,19.80
2023-02-01T09:47:13.517Z,15.68
2023-02-01T09:49:49.886Z,24.02
2023-02-01T09:52:35.236Z,10.90
2023-02-01T09:55:08.478Z,15.38
2023-02-01T09:58:03.397Z,14.45
2023-02-01T10:00:36.578Z,9.32
2023-02-01T10:03:05.053Z,9.73
2023-02-01T10:05:50.712Z,13.73
2023-02-01T10:08:34.850Z,14.35
2023-02-01T10:11:20.735Z,11.90
2023-02-01T10:13:54.204Z,12.38
2023-02-01T10:16:42.735Z,15.68
2023-02-01T10:19:31.776Z,7.93
2023-02-01T10:22:03.862Z,11.15
2023-02-01T10:24:42.006Z,8.38
2023-02-01T10:27:21.437Z,5.35
2023-02-01T10:29:55.861Z,9.63
2023-02-01T10:32:35.734Z,5.88
2023-02-01T10:35:14.485Z,8.48
2023-02-01T10:37:44.225Z,5.80
2023-02-01T10:40:23.518Z,8.05
2023-02-01T10:42:54.389Z,6.88
2023-02-01T10:45:26.023Z,8.90
2023-02-01T10:47:55.913Z,5.43
2023-02-01T10:50:40.340Z,11.55
2023-02-01T10:53:18.379Z,6.03
2023-02-01T10:55:45.861Z,10.93
2023-02-01T10:58:21.790Z,12.45
2023-02-01T11:05:06.797Z,19.75
2023-02-01T11:07:34.492Z,12.75
2023-02-01T11:10:03.064Z,13.43
2023-02-01T11:12:37.090Z,16.25
2023-02-01T11:15:22.906Z,15.27
2023-02-01T11:17:57.337Z,17.13
2023-02-01T11:20:41.220Z,16.33
2023-02-01T11:23:20.911Z,15.98
2023-02-01T11:26:08.844Z,20.38
2023-02-01T11:28:39.677Z,12.60
2023-02-01T11:31:13.639Z,13.90
2023-02-01T11:34:06.822Z,15.23
2023-02-01T11:36:36.995Z,15.35
2023-02-01T11:39:32.329Z,18.02
2023-02-01T11:42:06.682Z,22.20
2023-02-01T11:44:40.101Z,16.00
2023-02-01T11:47:21.255Z,17.10
2023-02-01T11:49:50.908Z,17.02
2023-02-01T11:52:44.444Z,14.23
2023-02-01T11:55:14.907Z,16.05
2023-02-01T11:57:58.514Z,16.80
2023-02-01T12:00:51.421Z,14.02
2023-02-01T12:03:47.231Z,14.55
2023-02-01T12:06:32.807Z,11.82
2023-02-01T12:09:27.711Z,17.60
2023-02-01T12:12:55.680Z,9.23
2023-02-01T12:15:48.405Z,11.35
2023-02-01T12:18:31.523Z,12.17
2023-02-01T12:21:07.598Z,13.02
2023-02-01T12:23:59.669Z,13.98
2023-02-01T12:26:27.164Z,8.70
2023-02-01T12:29:19.977Z,13.40
2023-02-01T12:32:02.576Z,13.82
2023-02-01T12:34:54.658Z,11.18
2023-02-01T12:37:45.465Z,12.75
2023-02-01T12:40:26.040Z,12.43
2023-02-01T12:43:02.801Z,11.98
2023-02-01T12:45:37.277Z,9.18
2023-02-01T12:48:26.459Z,13.50
2023-02-01T12:51:00.347Z,7.80
2023-02-01T12:53:39.261Z,15.63
2023-02-01T12:56:12.470Z,9.75
2023-02-01T12:58:43.889Z,14.55
2023-02-01T13:01:29.369Z,9.43
2023-02-01T13:04:15.549Z,12.90
2023-02-01T13:06:45.273Z,11.23
2023-02-01T13:09:35.578Z,10.15
2023-02-01T13:12:14.566Z,12.70
2023-02-01T13:14:47.762Z,10.93
2023-02-01T13:17:24.573Z,11.85
2023-02-01T13:19:58.122Z,12.38
2023-02-01T13:22:42.378Z,10.95
2023-02-01T13:25:17.436Z,16.60
2023-02-01T13:27:45.749Z,12.63
2023-02-01T13:30:25.597Z,19.10
2023-02-01T13:33:52.223Z,11.85
2023-02-01T13:35:48.389Z,9.25
2023-02-01T13:38:34.949Z,7.60
2023-02-01T13:41:30.997Z,19.13
2023-02-01T13:44:11.419Z,8.73
2023-02-01T13:46:48.041Z,7.07
2023-02-01T13:49:26.477Z,10.63
2023-02-01T13:51:57.729Z,11.85
2023-02-01T13:54:37.029Z,17.58
2023-02-01T13:57:07.529Z,11.10
2023-02-01T13:59:40.768Z,14.13
2023-02-01T14:02:39.262Z,11.07
2023-02-01T14:05:37.220Z,8.82
2023-02-01T14:08:07.707Z,12.63
2023-02-01T14:10:58.036Z,7.65
2023-02-01T14:13:39.426Z,8.90
2023-02-01T14:16:07.398Z,15.18
2023-02-01T14:18:34.903Z,12.32
2023-02-01T14:21:27.690Z,7.63
2023-02-01T14:23:55.217Z,9.82
2023-02-01T14:26:46.118Z,12.93
2023-02-01T14:29:20.812Z,10.38
2023-02-01T14:32:00.884Z,9.32
2023-02-01T14:34:28.470Z,8.55
2023-02-01T14:37:03.158Z,10.88
2023-02-01T14:39:36.338Z,9.52
2023-02-01T14:42:26.447Z,13.18
2023-02-01T14:45:14.001Z,10.40
2023-02-01T14:47:41.908Z,8.20
2023-02-01T14:50:19.162Z,10.70
2023-02-01T14:53:03.130Z,9.38
2023-02-01T14:55:38.886Z,13.00
2023-02-01T14:58:19.504Z,11.25
2023-02-01T15:00:51.480Z,13.02
2023-02-01T15:03:31.061Z,7.78
2023-02-01T15:06:05.439Z,14.65
2023-02-01T15:08:37.246Z,10.70
2023-02-01T15:11:12.668Z,9.27
2023-02-01T15:13:40.300Z,7.90
2023-02-01T15:16:16.190Z,10.55
2023-02-01T15:18:43.788Z,9.35
2023-02-01T15:21:29.796Z,8.93
2023-02-01T15:24:16.053Z,10.32
2023-02-01T15:26:43.815Z,11.00
2023-02-01T15:29:15.543Z,10.57
2023-02-01T15:31:52.713Z,11.43
2023-02-01T15:34:21.170Z,10.32
2023-02-01T15:37:02.416Z,11.45
2023-02-01T15:39:32.871Z,13.05
2023-02-01T15:42:10.427Z,12.90
2023-02-01T15:44:47.350Z,10.07
2023-02-01T15:47:18.425Z,19.15
2023-02-01T15:49:51.716Z,12.60
2023-02-01T15:52:23.833Z,11.20
2023-02-01T15:54:55.221Z,11.93
2023-02-01T15:57:31.561Z,15.77
2023-02-01T16:00:09.058Z,16.13
2023-02-01T16:02:52.617Z,13.38
2023-02-01T16:05:42.110Z,11.10
2023-02-01T16:08:27.559Z,13.02
2023-02-01T16:11:03.229Z,11.70
2023-02-01T16:13:30.791Z,15.75
2023-02-01T16:15:58.445Z,12.95
2023-02-01T16:18:25.960Z,12.80
2023-02-01T16:20:53.457Z,10.30
2023-02-01T16:23:21.574Z,14.27
2023-02-01T16:25:49.112Z,12.65
2023-02-01T16:28:16.617Z,10.43
2023-02-01T16:30:44.197Z,12.60
2023-02-01T16:33:18.913Z,14.98
2023-02-01T16:35:46.670Z,15.13
2023-02-01T16:38:16.263Z,14.50
2023-02-01T16:40:47.362Z,17.15
2023-02-01T16:43:24.817Z,14.77
2023-02-01T16:45:55.358Z,17.27
2023-02-01T16:48:34.173Z,17.35
2023-02-01T16:51:10.701Z,13.05
2023-02-01T16:53:53.190Z,14.77
2023-02-01T16:56:24.250Z,16.42
2023-02-01T16:58:51.773Z,13.88
2023-02-01T17:01:20.300Z,12.02
2023-02-01T17:03:48.396Z,18.67
2023-02-01T17:06:19.237Z,17.30
2023-02-01T17:08:51.234Z,17.20
2023-02-01T17:11:18.826Z,11.18
2023-02-01T17:13:46.499Z,17.48
2023-02-01T17:16:28.377Z,18.95
2023-02-01T17:19:03.661Z,21.90
2023-02-01T17:21:38.915Z,15.45
2023-02-01T17:24:07.380Z,10.98
2023-02-01T17:26:35.308Z,5.28
2023-02-01T17:29:03.889Z,5.60
2023-02-01T17:31:34.380Z,5.22
2023-02-01T17:34:01.936Z,2.53
2023-02-01T17:36:29.399Z,2.05
2023-02-01T17:39:05.747Z,3.25
2023-02-01T17:41:34.777Z,2.88
2023-02-01T17:44:03.127Z,2.42
2023-02-01T17:46:31.968Z,2.13
2023-02-01T17:48:59.608Z,4.00
2023-02-01T17:51:28.800Z,2.60
2023-02-01T17:53:56.319Z,2.40
2023-02-01T17:56:25.339Z,3.53
2023-02-01T17:58:52.811Z,2.80
2023-02-01T18:01:23.599Z,3.60
2023-02-01T18:03:52.100Z,5.15
2023-02-01T18:06:28.469Z,6.13
2023-02-01T18:08:56.002Z,4.20
2023-02-01T18:11:24.900Z,3.08
2023-02-01T18:13:53.730Z,3.67
2023-02-01T18:16:21.138Z,6.80
2023-02-01T18:18:49.271Z,2.58
2023-02-01T18:21:18.199Z,3.20
2023-02-01T18:23:46.075Z,3.28
2023-02-01T18:26:16.473Z,8.70
2023-02-01T18:28:44.171Z,7.95
2023-02-01T18:31:22.874Z,6.13
2023-02-01T18:33:55.692Z,8.48
2023-02-01T18:36:24.505Z,2.25
2023-02-01T18:38:54.189Z,8.43
2023-02-01T18:41:23.333Z,10.82
2023-02-01T18:43:52.443Z,6.07
2023-02-01T18:46:21.872Z,8.77
2023-02-01T18:48:49.561Z,14.52
2023-02-01T18:51:20.309Z,10.68
2023-02-01T18:53:48.846Z,11.35
2023-02-01T18:56:20.348Z,5.22
2023-02-01T18:58:47.985Z,7.50
2023-02-01T19:01:20.053Z,6.82
2023-02-01T19:04:02.929Z,8.07
2023-02-01T19:06:36.591Z,9.75
2023-02-01T19:09:04.232Z,10.75
2023-02-01T19:11:31.849Z,7.30
2023-02-01T19:13:59.299Z,8.00
2023-02-01T19:16:26.905Z,4.20
2023-02-01T19:18:54.543Z,4.28
2023-02-01T19:21:22.055Z,11.95
2023-02-01T19:23:49.550Z,1.98
2023-02-01T19:26:18.276Z,5.05
2023-02-01T19:28:49.073Z,8.55
2023-02-01T19:31:17.939Z,4.95
2023-02-01T19:33:45.560Z,8.65
2023-02-01T19:36:13.081Z,5.85
2023-02-01T19:38:40.611Z,6.45
2023-02-01T19:41:08.298Z,4.38
2023-02-01T19:43:37.028Z,10.25
2023-02-01T19:46:04.816Z,6.75
2023-02-01T19:48:34.771Z,3.63
2023-02-01T19:51:04.270Z,6.68
2023-02-01T19:53:31.725Z,7.75
2023-02-01T19:56:01.602Z,3.03
2023-02-01T19:58:29.109Z,2.97
2023-02-01T20:00:57.265Z,7.47
2023-02-01T20:03:24.940Z,4.93
2023-02-01T20:05:57.440Z,5.63
2023-02-01T20:08:26.173Z,6.75
2023-02-01T20:10:53.774Z,7.63
2023-02-01T20:13:21.372Z,5.15
2023-02-01T20:15:55.456Z,6.65
2023-02-01T20:18:23.053Z,8.82
2023-02-01T20:20:54.417Z,18.08
2023-02-01T20:23:21.826Z,8.73
2023-02-01T20:25:50.209Z,6.93
2023-02-01T20:28:17.767Z,12.88
2023-02-01T20:30:46.467Z,6.13
2023-02-01T20:33:14.002Z,8.52
2023-02-01T20:35:45.334Z,9.70
2023-02-01T20:38:14.112Z,11.48
2023-02-01T20:40:41.525Z,13.23
2023-02-01T20:43:09.097Z,10.30
2023-02-01T20:45:41.053Z,6.85
2023-02-01T20:48:09.740Z,7.50
2023-02-01T20:50:38.040Z,12.13
2023-02-01T20:53:05.587Z,8.50
2023-02-01T20:55:33.087Z,9.57
2023-02-01T20:58:00.560Z,6.20
2023-02-01T21:00:28.343Z,6.20
2023-02-01T21:02:55.812Z,7.97
2023-02-01T21:05:23.442Z,12.55
2023-02-01T21:07:51.181Z,7.13
2023-02-01T21:10:18.845Z,7.82
2023-02-01T21:12:46.377Z,9.93
2023-02-01T21:15:13.858Z,5.53
2023-02-01T21:17:41.336Z,6.25
2023-02-01T21:20:09.342Z,9.13
2023-02-01T21:22:36.916Z,7.15
2023-02-01T21:25:04.624Z,7.20
2023-02-01T21:27:32.119Z,5.97
2023-02-01T21:29:59.598Z,9.98
2023-02-01T21:32:27.126Z,9.98
2023-02-01T21:34:54.629Z,4.65
2023-02-01T21:37:25.781Z,6.72
2023-02-01T21:39:53.705Z,5.63
2023-02-01T21:42:22.163Z,6.30
2023-02-01T21:44:49.750Z,6.47
2023-02-01T21:47:25.908Z,9.95
2023-02-01T21:49:54.829Z,9.13
2023-02-01T21:52:23.270Z,5.13
2023-02-01T21:54:57.085Z,8.05
2023-02-01T21:57:24.610Z,10.50
2023-02-01T21:59:52.025Z,6.72
2023-02-01T22:02:19.686Z,7.03
2023-02-01T22:04:49.184Z,5.28
2023-02-01T22:07:16.834Z,4.30
2023-02-01T22:09:44.474Z,5.47
2023-02-01T22:12:13.624Z,10.20
2023-02-01T22:14:44.809Z,7.32
2023-02-01T22:17:13.352Z,8.77
2023-02-01T22:19:41.633Z,10.23
2023-02-01T22:22:11.725Z,7.95
2023-02-01T22:24:39.269Z,11.02
2023-02-01T22:27:13.282Z,8.75
2023-02-01T22:29:43.545Z,10.02
2023-02-01T22:32:13.369Z,12.70
2023-02-01T22:34:40.933Z,8.48
2023-02-01T22:37:08.868Z,10.35
2023-02-01T22:39:36.931Z,11.30
2023-02-01T22:42:05.214Z,12.18
2023-02-01T22:44:32.916Z,11.93
2023-02-01T22:47:00.354Z,8.13
2023-02-01T22:49:27.916Z,11.02
2023-02-01T22:51:55.312Z,16.30
2023-02-01T22:54:23.101Z,11.50
2023-02-01T22:56:50.998Z,12.63
2023-02-01T22:59:18.561Z,15.48
2023-02-01T23:01:46.090Z,14.57
2023-02-01T23:04:15.150Z,11.48
2023-02-01T23:06:43.114Z,14.00
2023-02-01T23:09:16.508Z,9.55
2023-02-01T23:11:44.649Z,13.32
2023-02-01T23:14:13.633Z,10.73
2023-02-01T23:16:41.776Z,8.73
2023-02-01T23:19:09.406Z,14.05
2023-02-01T23:21:37.321Z,10.88
2023-02-01T23:24:07.515Z,10.55
2023-02-01T23:26:35.410Z,9.60
2023-02-01T23:29:04.075Z,12.63
2023-02-01T23:31:34.908Z,7.65
2023-02-01T23:34:04.202Z,13.02
2023-02-01T23:36:33.130Z,13.77
2023-02-01T23:39:02.240Z,10.25
2023-02-01T23:41:30.280Z,7.55
2023-02-01T23:43:58.214Z,12.90
2023-02-01T23:46:47.624Z,9.93
2023-02-01T23:49:17.093Z,7.50
2023-02-01T23:51:47.600Z,7.95
2023-02-01T23:54:15.196Z,5.22
2023-02-01T23:56:44.746Z,6.25
2023-02-01T23:59:18.473Z,10.82
